Latest Weather Observations for Ceduna

IDS60801

Issued at 11:02 am CDT Saturday 20 December 2014 (issued every 30 minutes, with the page automatically refreshed every 10 minutes)

About weather observations | Map of weather stations | Latest weather observations for SA | Other Formats
Station Details ID: 018012 Name: CEDUNA AMO Lat: -32.13 Lon: 133.70 Height: 15.3 m
Data from the previous 72 hours. | See also: Recent months at Ceduna
Date/Time
CDT
Temp
°C
App
Temp
°C
Dew
Point
Rel
Hum
%
Delta-T
°C
Wind Press
QNH
hPa
Press
MSL
hPa
Rain
since 9 am
mm
Dir
 
Spd
km/h
Gust
km/h
Spd
kts
Gust
kts
20/11:00am 30.2 26.2 3.0 17 13.7 NNE 13 22 7 12 1015.2 1015.1 0.0
20/10:30am 28.8 24.0 2.5 18 13.0 NE 17 24 9 13 1015.5 1015.4 0.0
20/10:00am 26.8 21.8 3.4 22 11.6 ENE 19 28 10 15 1015.8 1015.7 0.0
20/09:30am 24.9 19.9 4.5 26 10.2 ENE 20 26 11 14 1015.8 1015.7 0.0
20/09:00am 21.6 17.5 6.1 36 7.8 E 17 22 9 12 1016.3 1016.2 0.0
20/08:30am 18.7 14.3 6.4 44 6.1 E 19 24 10 13 1016.2 1016.1 0.0
20/08:00am 16.6 12.8 7.6 55 4.5 E 17 22 9 12 1016.3 1016.2 0.0
20/07:30am 15.1 11.5 8.3 64 3.4 E 17 22 9 12 1016.3 1016.2 0.0
20/07:00am 12.7 9.9 8.7 76 2.0 E 13 19 7 10 1016.2 1016.1 0.0
20/06:30am 10.9 8.5 8.7 86 1.1 ESE 11 17 6 9 1016.4 1016.3 0.0
20/06:00am 9.3 7.4 7.6 89 0.8 ESE 7 9 4 5 1016.4 1016.3 0.0
20/05:30am 9.5 7.3 8.0 90 0.7 ENE 9 11 5 6 1016.3 1016.2 0.0
20/05:00am 10.0 7.5 8.1 88 0.9 E 11 13 6 7 1016.4 1016.3 0.0
20/04:30am 10.6 8.5 8.3 86 1.1 E 9 11 5 6 1016.7 1016.6 0.0
20/04:00am 11.9 10.6 9.3 84 1.3 ESE 6 7 3 4 1016.6 1016.5 0.0
20/03:30am 12.4 10.7 9.9 85 1.3 ESE 9 11 5 6 1016.6 1016.5 0.0
20/03:00am 13.9 11.9 10.2 78 1.9 SE 11 15 6 8 1016.8 1016.7 0.0
20/02:30am 13.6 11.8 10.7 82 1.5 SE 11 15 6 8 1017.2 1017.1 0.0
20/02:00am 13.6 12.2 10.9 84 1.4 SE 9 11 5 6 1017.2 1017.1 0.0
20/01:30am 14.9 13.3 11.7 81 1.7 SE 11 13 6 7 1017.6 1017.5 0.0
20/01:00am 16.0 13.4 12.0 77 2.2 SE 17 24 9 13 1017.6 1017.5 0.0
20/12:30am 16.2 13.6 12.0 76 2.3 SE 17 20 9 11 1017.8 1017.7 0.0
20/12:00am 16.4 13.8 12.0 75 2.4 SSE 17 20 9 11 1018.2 1018.1 0.0
 
Date/Time
CDT
Temp
°C
App
Temp
°C
Dew
Point
Rel
Hum
%
Delta-T
°C
Wind Press
QNH
hPa
Press
MSL
hPa
Rain
since 9 am
mm
Dir
 
Spd
km/h
Gust
km/h
Spd
kts
Gust
kts
19/11:30pm 16.8 13.9 12.4 75 2.4 SSE 19 24 10 13 1018.5 1018.4 0.0
19/11:00pm 16.9 14.1 12.6 76 2.4 SSE 19 24 10 13 1018.6 1018.5 0.0
19/10:30pm 17.3 14.2 12.2 72 2.8 SSE 20 26 11 14 1018.9 1018.8 0.0
19/10:00pm 17.5 13.8 11.6 68 3.2 SSE 22 28 12 15 1019.0 1018.9 0.0
19/09:30pm 17.7 13.6 11.6 67 3.3 SSE 24 33 13 18 1018.8 1018.7 0.0
19/09:00pm 17.9 13.6 12.1 69 3.2 S 26 35 14 19 1018.8 1018.7 0.0
19/08:30pm 18.3 13.6 11.9 66 3.5 S 28 35 15 19 1018.8 1018.7 0.0
19/08:00pm 19.0 13.5 11.9 63 3.9 SSE 32 37 17 20 1018.8 1018.7 0.0
19/07:30pm 19.7 14.4 11.3 58 4.6 S 30 39 16 21 1018.8 1018.7 0.0
19/07:00pm 20.0 14.1 11.2 57 4.8 S 33 41 18 22 1018.6 1018.5 0.0
19/06:30pm 20.2 14.5 11.1 56 5.0 S 32 39 17 21 1018.6 1018.5 0.0
19/06:00pm 20.8 15.0 10.7 52 5.5 S 32 39 17 21 1018.7 1018.6 0.0
19/05:30pm 21.0 15.1 11.0 52 5.5 S 33 43 18 23 1018.6 1018.5 0.0
19/05:00pm 21.3 15.3 10.0 48 6.1 S 32 43 17 23 1018.9 1018.8 0.0
19/04:30pm 21.0 15.0 10.7 51 5.6 S 33 41 18 22 1019.0 1018.9 0.0
19/04:00pm 21.2 14.9 9.6 47 6.2 S 33 43 18 23 1019.3 1019.2 0.0
19/03:30pm 21.9 15.8 9.6 45 6.6 S 32 43 17 23 1019.5 1019.4 0.0
19/03:00pm 21.5 15.3 9.5 46 6.4 S 32 37 17 20 1019.7 1019.6 0.0
19/02:30pm 22.0 16.0 10.2 47 6.4 SSW 32 39 17 21 1019.9 1019.8 0.0
19/02:00pm 22.2 15.8 9.3 43 6.9 SSW 33 41 18 22 1020.1 1020.1 0.0
19/01:30pm 21.8 15.6 9.5 45 6.6 SSW 32 39 17 21 1020.5 1020.5 0.0
19/01:00pm 22.2 17.1 9.3 43 6.9 S 26 33 14 18 1020.6 1020.6 0.0
19/12:30pm 21.8 16.7 9.2 44 6.7 S 26 37 14 20 1020.8 1020.8 0.0
19/12:00pm 22.1 17.9 9.6 45 6.7 S 22 28 12 15 1020.9 1020.9 0.0
19/11:30am 21.4 17.4 9.2 45 6.5 S 20 28 11 15 1020.8 1020.8 0.0
19/11:00am 21.0 17.3 7.8 42 6.8 SSE 17 24 9 13 1020.8 1020.8 0.0
19/10:30am 20.3 16.6 8.1 45 6.3 SSE 17 24 9 13 1020.8 1020.8 0.0
19/10:00am 20.0 16.7 8.2 46 6.1 ESE 15 24 8 13 1021.2 1021.2 0.0
19/09:30am 19.3 16.2 8.7 50 5.5 SE 15 24 8 13 1021.0 1021.0 0.0
19/09:00am 18.4 14.6 9.0 54 4.9 SE 19 28 10 15 1020.8 1020.8 0.0
19/08:30am 17.7 13.8 8.8 56 4.6 ESE 19 26 10 14 1020.7 1020.7 0.0
19/08:00am 16.3 13.2 8.9 61 3.8 ESE 15 19 8 10 1020.5 1020.5 0.0
19/07:30am 13.9 12.1 9.4 74 2.3 ESE 9 13 5 7 1020.2 1020.2 0.0
19/07:00am 10.5 8.0 8.2 86 1.1 ESE 11 13 6 7 1019.7 1019.6 0.0
19/06:30am 10.3 7.4 8.2 87 1.0 E 13 15 7 8 1019.4 1019.3 0.0
19/06:00am 11.2 8.5 8.8 85 1.2 ESE 13 15 7 8 1019.3 1019.2 0.0
19/05:30am 11.7 8.7 9.1 84 1.3 ESE 15 17 8 9 1019.1 1019.0 0.0
19/05:00am 12.7 9.8 9.5 81 1.6 ESE 15 17 8 9 1018.8 1018.7 0.0
19/04:30am 13.3 10.4 9.8 79 1.8 ESE 15 17 8 9 1018.7 1018.6 0.0
19/04:00am 13.2 11.1 9.9 80 1.7 ESE 11 13 6 7 1018.6 1018.5 0.0
19/03:30am 14.0 11.2 10.1 77 2.0 ESE 15 17 8 9 1018.7 1018.6 0.0
19/03:00am 15.1 12.9 10.7 75 2.3 E 13 15 7 8 1018.7 1018.6 0.0
19/02:30am 13.3 11.4 10.4 82 1.5 E 11 15 6 8 1018.7 1018.6 0.0
19/02:00am 13.2 10.9 10.5 84 1.4 ESE 13 13 7 7 1018.9 1018.8 0.0
19/01:30am 13.9 12.2 11.1 83 1.5 SE 11 13 6 7 1019.0 1018.9 0.0
19/01:00am 14.6 13.3 11.2 80 1.8 SE 9 11 5 6 1019.1 1019.0 0.0
19/12:30am 15.5 13.9 11.4 76 2.2 SSE 11 13 6 7 1019.1 1019.0 0.0
19/12:00am 16.6 14.6 11.4 71 2.8 SE 13 15 7 8 1019.0 1018.9 0.0
 
Date/Time
CDT
Temp
°C
App
Temp
°C
Dew
Point
Rel
Hum
%
Delta-T
°C
Wind Press
QNH
hPa
Press
MSL
hPa
Rain
since 9 am
mm
Dir
 
Spd
km/h
Gust
km/h
Spd
kts
Gust
kts
18/11:30pm 17.5 14.3 11.4 67 3.3 SSE 19 28 10 15 1019.0 1018.9 0.0
18/11:00pm 17.5 14.8 11.6 68 3.2 SE 17 22 9 12 1018.9 1018.8 0.0
18/10:30pm 18.1 15.3 11.5 65 3.6 SSE 17 24 9 13 1018.7 1018.6 0.0
18/10:00pm 18.1 15.7 11.3 64 3.7 SSE 15 20 8 11 1018.6 1018.5 0.0
18/09:30pm 18.1 14.5 11.7 66 3.5 S 22 28 12 15 1018.3 1018.2 0.0
18/09:00pm 18.3 15.1 11.9 66 3.5 S 20 24 11 13 1018.1 1018.0 0.0
18/08:30pm 18.6 15.6 11.9 65 3.7 S 19 24 10 13 1018.0 1017.9 0.0
18/08:00pm 19.3 15.0 10.8 58 4.6 S 24 32 13 17 1017.7 1017.6 0.0
18/07:30pm 20.1 15.8 10.7 54 5.1 S 24 30 13 16 1017.4 1017.3 0.0
18/07:00pm 20.0 16.2 12.3 61 4.3 S 24 32 13 17 1016.9 1016.8 0.0
18/06:30pm 20.9 16.3 12.2 57 4.9 SSW 28 33 15 18 1016.6 1016.5 0.0
18/06:00pm 20.9 16.1 11.7 55 5.1 SSW 28 39 15 21 1016.4 1016.3 0.0
18/05:30pm 21.8 17.3 11.3 51 5.8 SSW 26 35 14 19 1016.2 1016.1 0.0
18/05:00pm 21.9 16.7 10.3 47 6.3 SSW 28 39 15 21 1016.0 1015.9 0.0
18/04:30pm 21.7 16.2 10.5 49 6.1 SSW 30 37 16 20 1016.0 1015.9 0.0
18/04:00pm 22.0 16.6 10.9 49 6.1 SSW 30 39 16 21 1016.0 1015.9 0.0
18/03:30pm 21.8 16.3 10.4 48 6.2 SSW 30 39 16 21 1015.8 1015.7 0.0
18/03:00pm 22.0 15.7 9.1 43 6.9 SSW 32 37 17 20 1015.7 1015.6 0.0
18/02:30pm 21.6 15.8 9.5 46 6.5 SSW 30 39 16 21 1015.5 1015.4 0.0
18/02:00pm 21.9 16.3 10.1 47 6.4 SSW 30 39 16 21 1015.7 1015.6 0.0
18/01:30pm 22.5 16.9 8.8 41 7.3 SSW 28 35 15 19 1015.6 1015.5 0.0
18/01:00pm 22.2 17.0 10.3 46 6.5 SSW 28 35 15 19 1015.7 1015.6 0.0
18/12:30pm 22.2 17.9 10.8 48 6.3 SSW 24 32 13 17 1015.7 1015.6 0.0
18/12:00pm 21.5 17.1 10.3 49 6.1 SSW 24 30 13 16 1015.6 1015.5 0.0
18/11:30am 21.7 17.6 11.4 52 5.7 SSW 24 32 13 17 1015.3 1015.2 0.0
18/11:00am 20.7 16.5 11.0 53 5.3 SSW 24 30 13 16 1015.2 1015.1 0.0
18/10:30am 20.6 16.5 11.4 55 5.1 SSW 24 33 13 18 1015.0 1014.9 0.0
18/10:00am 20.8 16.3 10.0 50 5.8 SSW 24 32 13 17 1014.8 1014.7 0.0
18/09:30am 20.8 17.1 10.0 50 5.8 SSW 20 28 11 15 1014.5 1014.4 0.0
18/09:00am 20.3 16.7 9.9 51 5.6 SSW 19 24 10 13 1014.3 1014.2 0.0
18/08:30am 19.3 15.9 11.3 60 4.4 S 20 26 11 14 1014.0 1013.9 0.0
18/08:00am 17.8 16.4 10.9 64 3.7 SE 9 11 5 6 1013.6 1013.5 0.0
18/07:30am 15.0 13.7 9.8 71 2.7 ESE 7 11 4 6 1012.9 1012.8 0.0
18/07:00am 11.3 9.3 8.5 83 1.4 ESE 9 11 5 6 1012.8 1012.7 0.0
18/06:30am 9.7 7.4 7.4 85 1.1 E 9 13 5 7 1012.5 1012.4 0.0
18/06:00am 10.0 8.1 7.5 84 1.2 ESE 7 9 4 5 1012.2 1012.1 0.0
18/05:30am 10.2 9.2 7.5 83 1.3 E 2 6 1 3 1011.8 1011.7 0.0
18/05:00am 10.2 8.5 7.5 83 1.3 E 6 7 3 4 1011.4 1011.3 0.0
18/04:30am 11.0 10.6 8.1 82 1.4 CALM 0 0 0 0 1011.0 1010.9 0.0
18/04:00am 11.7 11.4 8.7 82 1.5 CALM 0 0 0 0 1010.8 1010.7 0.0
18/03:30am 11.9 10.0 8.9 82 1.5 E 9 11 5 6 1010.5 1010.4 0.0
18/03:00am 12.2 10.6 8.8 80 1.7 E 7 9 4 5 1010.4 1010.3 0.0
18/02:30am 12.9 10.2 9.1 78 1.9 E 13 15 7 8 1010.3 1010.2 0.0
18/02:00am 12.0 9.7 9.0 82 1.5 ESE 11 13 6 7 1010.1 1010.0 0.0
18/01:30am 13.2 10.8 9.9 80 1.7 SE 13 15 7 8 1010.1 1010.0 0.0
18/01:00am 12.5 9.8 9.1 80 1.7 SE 13 17 7 9 1010.3 1010.2 0.0
18/12:30am 13.2 11.1 9.9 80 1.7 SE 11 13 6 7 1010.2 1010.1 0.0
18/12:00am 14.3 12.0 10.5 78 2.0 SE 13 13 7 7 1010.0 1009.9 0.0
 
Date/Time
CDT
Temp
°C
App
Temp
°C
Dew
Point
Rel
Hum
%
Delta-T
°C
Wind Press
QNH
hPa
Press
MSL
hPa
Rain
since 9 am
mm
Dir
 
Spd
km/h
Gust
km/h
Spd
kts
Gust
kts
17/11:30pm 15.2 13.0 10.9 75 2.3 SSE 13 15 7 8 1009.9 1009.8 0.0
17/11:00pm 15.5 13.2 10.6 72 2.6 SE 13 15 7 8 1010.1 1010.0 0.0
17/10:30pm 16.0 14.2 11.0 72 2.7 SSE 11 13 6 7 1010.0 1009.9 0.0
17/10:00pm 16.9 14.8 11.2 69 3.1 SSE 13 19 7 10 1009.9 1009.8 0.0
17/09:30pm 17.5 15.1 11.4 67 3.3 SSE 15 20 8 11 1009.7 1009.6 0.0
17/09:00pm 17.8 14.9 11.0 64 3.7 SSE 17 22 9 12 1008.9 1008.8 0.0
17/08:30pm 18.2 14.6 10.4 60 4.2 SSE 20 26 11 14 1008.5 1008.4 0.0
17/08:00pm 18.9 14.6 10.6 58 4.5 SSE 24 33 13 18 1008.8 1008.7 0.0
17/07:30pm 19.2 13.7 10.7 58 4.6 S 30 39 16 21 1008.6 1008.5 0.0
17/07:00pm 20.0 14.3 11.3 57 4.8 S 32 41 17 22 1008.4 1008.3 0.0
17/06:30pm 20.6 14.9 11.0 54 5.3 S 32 41 17 22 1008.4 1008.3 0.0
17/06:00pm 20.8 14.5 11.2 54 5.3 SSW 35 44 19 24 1008.4 1008.3 0.0
17/05:30pm 21.3 15.0 11.2 52 5.6 SSW 35 44 19 24 1008.4 1008.3 0.0
17/05:00pm 22.2 15.8 10.8 48 6.3 SSW 35 41 19 22 1008.3 1008.2 0.0
17/04:30pm 22.6 16.7 10.6 46 6.6 SSW 32 37 17 20 1008.0 1007.9 0.0
17/04:00pm 23.9 18.8 9.1 39 8.0 SSW 26 33 14 18 1007.8 1007.7 0.0
17/03:30pm 24.6 19.9 7.6 33 9.0 S 22 28 12 15 1008.0 1007.9 0.0
17/03:00pm 24.2 19.6 8.3 36 8.5 S 22 28 12 15 1007.9 1007.8 0.0
17/02:30pm 24.0 19.0 8.2 36 8.4 S 24 32 13 17 1007.8 1007.7 0.0
17/02:00pm 23.8 18.7 7.7 35 8.5 S 24 33 13 18 1007.9 1007.8 0.0
17/01:30pm 24.4 20.0 7.2 33 9.0 SSE 20 30 11 16 1008.4 1008.3 0.0
17/01:00pm 22.7 18.3 7.3 37 8.0 S 20 28 11 15 1009.2 1009.1 0.0
17/12:30pm 21.6 17.3 8.0 41 7.1 SSW 20 26 11 14 1010.0 1009.9 0.0
17/12:00pm 20.7 17.0 8.0 44 6.6 SSW 17 24 9 13 1010.7 1010.6 0.0
17/11:30am 20.4 16.5 7.3 42 6.7 SSW 17 22 9 12 1011.2 1011.1 0.0

Other Formats:

Comma delimited format used in spreadsheet applications
http://www.bom.gov.au/fwo/IDS60801/IDS60801.94653.axf

JavaScript Object Notation format (JSON) in row-major order
http://www.bom.gov.au/fwo/IDS60801/IDS60801.94653.json